South Woodstock, Connecticut
Current Conditions -  °F | °C
As of 4:52 AM on Sunday 23 Nov 2014 (Local Time) from KIJD Reporting Station
Overcast Overcast  
Wind Chill: 39°   Ceiling: 6000
Heat Index: 43°   Visibility: 10mi
Dew Point: 20°   Wind: 7mph
Humidity: 40%   Direction: 210°SSW
Pressure: 30.14"   Gusts: NA
Location:  41.93°N, 71.96°W
Report Text: KIJD 230952Z AUTO 21006KT 10SM BKN060 OVC100 06/M07 A3014 RMK AO2 SLP206 T00611067
Loading
Personal Weather Stations






























Interactive Weather Map New forecast layout! Learn more

10-Day Weather Forecast

Advertisements
Track Severe Weather on mobile